createdAt,value
2018-09-18T00:01:55.137Z,33.15
2018-09-18T00:04:22.437Z,32.28
2018-09-18T00:06:49.696Z,34.50
2018-09-18T00:09:19.497Z,33.50
2018-09-18T00:11:54.226Z,37.55
2018-09-18T00:14:21.181Z,32.40
2018-09-18T00:16:48.228Z,31.70
2018-09-18T00:19:15.913Z,30.35
2018-09-18T00:21:44.584Z,29.17
2018-09-18T00:24:11.573Z,36.75
2018-09-18T00:26:38.579Z,32.38
2018-09-18T00:29:05.624Z,28.65
2018-09-18T00:31:32.611Z,34.72
2018-09-18T00:33:59.515Z,33.95
2018-09-18T00:36:27.460Z,31.60
2018-09-18T00:38:54.432Z,31.58
2018-09-18T00:41:21.425Z,31.45
2018-09-18T00:43:48.428Z,31.37
2018-09-18T00:46:15.480Z,32.55
2018-09-18T00:48:42.630Z,31.70
2018-09-18T00:51:09.676Z,29.87
2018-09-18T00:53:36.723Z,36.17
2018-09-18T00:56:03.777Z,33.90
2018-09-18T00:58:30.820Z,33.83
2018-09-18T01:00:57.821Z,31.70
2018-09-18T01:03:25.633Z,32.50
2018-09-18T01:05:52.687Z,32.30
2018-09-18T01:08:19.731Z,34.47
2018-09-18T01:10:46.989Z,32.72
2018-09-18T01:13:13.984Z,33.25
2018-09-18T01:15:41.082Z,33.05
2018-09-18T01:18:09.155Z,33.60
2018-09-18T01:20:36.155Z,29.23
2018-09-18T01:23:04.076Z,35.78
2018-09-18T01:25:31.126Z,30.40
2018-09-18T01:27:58.208Z,36.30
2018-09-18T01:30:25.220Z,29.73
2018-09-18T01:32:52.369Z,30.17
2018-09-18T01:35:19.424Z,30.40
2018-09-18T01:37:46.478Z,32.40
2018-09-18T01:40:13.426Z,30.52
2018-09-18T01:42:40.506Z,28.45
2018-09-18T01:45:07.512Z,29.87
2018-09-18T01:47:34.659Z,30.88
2018-09-18T01:50:01.627Z,28.17
2018-09-18T01:52:28.656Z,29.45
2018-09-18T01:54:55.709Z,28.25
2018-09-18T01:57:22.750Z,28.75
2018-09-18T01:59:49.801Z,27.15
2018-09-18T02:02:16.854Z,26.58
2018-09-18T02:04:44.005Z,26.40
2018-09-18T02:07:11.049Z,31.10
2018-09-18T02:09:38.098Z,28.50
2018-09-18T02:12:05.152Z,27.30
2018-09-18T02:14:32.313Z,27.80
2018-09-18T02:16:59.294Z,26.77
2018-09-18T02:19:26.355Z,30.95
2018-09-18T02:21:53.407Z,29.33
2018-09-18T02:24:20.451Z,29.30
2018-09-18T02:26:47.501Z,26.05
2018-09-18T02:29:14.553Z,26.40
2018-09-18T02:31:41.593Z,24.87
2018-09-18T02:34:08.642Z,24.73
2018-09-18T02:36:35.699Z,29.15
2018-09-18T02:39:02.739Z,25.37
2018-09-18T02:41:30.198Z,27.73
2018-09-18T02:43:57.246Z,29.80
2018-09-18T02:46:24.300Z,24.20
2018-09-18T02:48:51.344Z,23.38
2018-09-18T02:51:18.391Z,26.98
2018-09-18T02:53:45.446Z,26.33
2018-09-18T02:56:12.490Z,23.85
2018-09-18T02:58:58.502Z,27.17
2018-09-18T03:01:25.531Z,24.45
2018-09-18T03:03:52.580Z,25.80
2018-09-18T03:06:19.637Z,25.35
2018-09-18T03:08:46.677Z,25.65
2018-09-18T03:11:13.640Z,26.92
2018-09-18T03:13:40.672Z,25.27
2018-09-18T03:16:07.721Z,23.50
2018-09-18T03:18:35.179Z,24.92
2018-09-18T03:21:02.241Z,24.10
2018-09-18T03:23:29.276Z,22.13
2018-09-18T03:25:56.279Z,26.08
2018-09-18T03:28:23.270Z,26.98
2018-09-18T03:30:50.321Z,24.08
2018-09-18T03:33:17.881Z,27.35
2018-09-18T03:35:44.951Z,25.73
2018-09-18T03:38:11.983Z,27.13
2018-09-18T03:40:39.441Z,27.75
2018-09-18T03:43:06.435Z,25.02
2018-09-18T03:45:33.435Z,25.67
2018-09-18T03:48:00.683Z,28.20
2018-09-18T03:50:28.860Z,42.97
2018-09-18T03:52:55.907Z,71.15
2018-09-18T03:55:22.961Z,24.80
2018-09-18T03:57:50.005Z,39.70
2018-09-18T04:00:17.054Z,24.95
2018-09-18T04:02:45.051Z,28.77
2018-09-18T04:05:13.199Z,24.10
2018-09-18T04:07:40.253Z,24.83
2018-09-18T04:10:07.296Z,29.45
2018-09-18T04:12:34.344Z,28.80
2018-09-18T04:15:01.398Z,25.70
2018-09-18T04:17:28.477Z,31.58
2018-09-18T04:19:55.541Z,27.67
2018-09-18T04:22:22.545Z,25.45
2018-09-18T04:24:50.212Z,26.45
2018-09-18T04:27:17.668Z,24.85
2018-09-18T04:29:44.690Z,25.35
2018-09-18T04:32:12.585Z,23.85
2018-09-18T04:34:39.633Z,28.50
2018-09-18T04:37:06.689Z,27.45
2018-09-18T04:39:54.124Z,22.83
2018-09-18T04:42:41.466Z,23.17
2018-09-18T04:45:08.584Z,24.05
2018-09-18T04:47:35.633Z,24.85
2018-09-18T04:50:02.686Z,24.42
2018-09-18T04:52:29.729Z,23.38
2018-09-18T04:54:56.952Z,23.58
2018-09-18T04:57:24.032Z,24.85
2018-09-18T04:59:51.080Z,21.87
2018-09-18T05:02:18.134Z,25.05
2018-09-18T05:04:45.287Z,23.15
2018-09-18T05:07:12.329Z,24.75
2018-09-18T05:09:39.379Z,25.33
2018-09-18T05:12:06.432Z,24.85
2018-09-18T05:14:33.479Z,26.17
2018-09-18T05:17:00.496Z,24.92
2018-09-18T05:19:27.542Z,22.77
2018-09-18T05:21:54.967Z,22.15
2018-09-18T05:24:21.976Z,22.48
2018-09-18T05:26:48.985Z,23.10
2018-09-18T05:29:16.076Z,23.42
2018-09-18T05:31:43.225Z,25.05
2018-09-18T05:34:10.379Z,22.05
2018-09-18T05:36:37.424Z,24.40
2018-09-18T05:39:04.576Z,29.10
2018-09-18T05:47:23.847Z,24.55
2018-09-18T05:49:50.999Z,21.75
2018-09-18T05:52:18.050Z,23.17
2018-09-18T05:54:45.091Z,24.65
2018-09-18T05:57:12.141Z,24.55
2018-09-18T05:59:39.395Z,22.85
2018-09-18T06:02:06.449Z,23.05
2018-09-18T06:04:33.458Z,23.10
2018-09-18T06:07:00.510Z,21.75
2018-09-18T06:09:27.589Z,21.17
2018-09-18T06:11:54.641Z,23.80
2018-09-18T06:14:21.689Z,21.65
2018-09-18T06:16:48.841Z,22.62
2018-09-18T06:19:15.966Z,21.25
2018-09-18T06:21:45.398Z,23.15
2018-09-18T06:24:12.439Z,21.42
2018-09-18T06:26:39.489Z,20.50
2018-09-18T06:29:06.544Z,18.75
2018-09-18T06:31:33.759Z,22.15
2018-09-18T06:34:00.847Z,23.92
2018-09-18T06:36:27.996Z,21.95
2018-09-18T06:38:55.040Z,26.05
2018-09-18T06:41:22.089Z,22.90
2018-09-18T06:43:49.341Z,23.33
2018-09-18T06:46:16.390Z,26.15
2018-09-18T06:48:43.448Z,20.42
2018-09-18T06:51:10.487Z,20.83
2018-09-18T06:53:37.535Z,20.75
2018-09-18T06:56:04.590Z,26.05
2018-09-18T06:58:31.632Z,19.55
2018-09-18T07:00:58.988Z,19.85
2018-09-18T07:03:26.044Z,17.27
2018-09-18T07:05:53.194Z,19.90
2018-09-18T07:08:20.795Z,17.92
2018-09-18T07:10:47.900Z,19.75
2018-09-18T07:13:14.956Z,16.70
2018-09-18T07:15:42.237Z,17.12
2018-09-18T07:18:09.312Z,18.92
2018-09-18T07:20:36.300Z,16.67
2018-09-18T07:23:03.864Z,15.77
2018-09-18T07:25:30.910Z,16.70
2018-09-18T07:27:57.957Z,16.30
2018-09-18T07:30:25.011Z,15.57
2018-09-18T07:32:53.084Z,19.02
2018-09-18T07:35:20.126Z,17.50
2018-09-18T07:37:47.177Z,17.33
2018-09-18T07:40:14.192Z,15.38
2018-09-18T07:42:41.272Z,15.25
2018-09-18T07:45:08.321Z,16.98
2018-09-18T07:47:35.376Z,14.57
2018-09-18T07:50:02.420Z,13.50
2018-09-18T07:52:29.474Z,13.32
2018-09-18T07:54:56.525Z,20.33
2018-09-18T07:57:23.565Z,14.45
2018-09-18T07:59:50.717Z,19.70
2018-09-18T08:02:17.868Z,17.52
2018-09-18T08:04:44.887Z,16.52
2018-09-18T08:07:12.171Z,15.98
2018-09-18T08:09:39.221Z,14.18
2018-09-18T08:12:06.271Z,17.30
2018-09-18T08:14:33.316Z,16.75
2018-09-18T08:17:00.365Z,17.12
2018-09-18T08:19:27.456Z,14.35
2018-09-18T08:21:54.879Z,13.77
2018-09-18T08:24:22.028Z,14.35
2018-09-18T08:26:49.070Z,13.50
2018-09-18T08:29:17.042Z,12.18
2018-09-18T08:31:44.095Z,12.35
2018-09-18T08:34:11.142Z,13.05
2018-09-18T08:36:38.190Z,11.80
2018-09-18T08:39:05.380Z,11.90
2018-09-18T08:41:32.592Z,14.00
2018-09-18T08:44:00.360Z,13.13
2018-09-18T08:46:27.408Z,12.07
2018-09-18T08:48:54.556Z,11.68
2018-09-18T08:51:21.618Z,16.75
2018-09-18T08:53:48.778Z,12.55
2018-09-18T08:56:15.813Z,15.55
2018-09-18T08:58:42.853Z,11.80
2018-09-18T09:01:09.913Z,13.18
2018-09-18T09:03:37.230Z,12.05
2018-09-18T09:06:04.366Z,19.12
2018-09-18T09:08:31.519Z,13.38
2018-09-18T09:10:58.597Z,13.65
2018-09-18T09:13:25.690Z,14.10
2018-09-18T09:15:52.696Z,13.18
2018-09-18T09:18:19.959Z,14.77
2018-09-18T09:20:47.170Z,15.00
2018-09-18T09:23:14.281Z,15.00
2018-09-18T09:25:41.417Z,15.23
2018-09-18T09:28:08.464Z,15.23
2018-09-18T09:30:35.508Z,14.20
2018-09-18T09:33:02.580Z,13.43
2018-09-18T09:35:29.639Z,20.75
2018-09-18T09:37:56.760Z,14.77
2018-09-18T09:40:24.016Z,15.25
2018-09-18T09:42:51.058Z,13.30
2018-09-18T09:45:18.108Z,17.67
2018-09-18T09:47:46.181Z,16.80
2018-09-18T09:50:13.332Z,16.73
2018-09-18T09:52:40.485Z,14.05
2018-09-18T09:55:07.536Z,13.02
2018-09-18T09:57:34.580Z,14.15
2018-09-18T10:00:01.628Z,13.13
2018-09-18T10:02:28.681Z,12.88
2018-09-18T10:04:55.727Z,11.43
2018-09-18T10:07:22.877Z,13.48
2018-09-18T10:09:49.926Z,12.35
2018-09-18T10:12:17.076Z,12.90
2018-09-18T10:14:44.134Z,11.68
2018-09-18T10:17:17.215Z,10.77
2018-09-18T10:19:44.270Z,12.37
2018-09-18T10:22:11.420Z,14.40
2018-09-18T10:24:38.594Z,14.32
2018-09-18T10:27:05.797Z,18.58
2018-09-18T10:29:32.974Z,11.10
2018-09-18T10:32:00.133Z,12.20
2018-09-18T10:34:28.914Z,12.57
2018-09-18T10:36:55.959Z,11.10
2018-09-18T10:39:23.019Z,13.18
2018-09-18T10:41:50.061Z,10.88
2018-09-18T10:44:17.122Z,9.82
2018-09-18T10:46:44.159Z,12.20
2018-09-18T10:49:11.407Z,11.52
2018-09-18T10:51:38.458Z,9.63
2018-09-18T10:54:05.505Z,10.25
2018-09-18T10:56:33.473Z,14.15
2018-09-18T10:59:01.143Z,12.18
2018-09-18T11:01:28.602Z,13.57
2018-09-18T11:03:56.275Z,14.45
2018-09-18T11:06:24.185Z,13.23
2018-09-18T11:08:51.204Z,21.70
2018-09-18T11:11:18.222Z,15.32
2018-09-18T11:13:45.277Z,12.57
2018-09-18T11:16:13.119Z,10.43
2018-09-18T11:18:40.059Z,10.00
2018-09-18T11:21:07.137Z,9.45
2018-09-18T11:23:34.412Z,12.43
2018-09-18T11:26:02.051Z,10.68
2018-09-18T11:28:29.106Z,11.57
2018-09-18T11:30:56.257Z,10.65
2018-09-18T11:33:23.312Z,11.15
2018-09-18T11:35:50.320Z,10.80
2018-09-18T11:38:17.403Z,9.55
2018-09-18T11:40:44.448Z,10.65
2018-09-18T11:43:11.495Z,10.43
2018-09-18T11:45:40.098Z,9.95
2018-09-18T11:48:07.131Z,11.60
2018-09-18T11:50:35.095Z,10.35
2018-09-18T11:53:02.861Z,11.55
2018-09-18T11:55:30.012Z,15.88
2018-09-18T11:57:57.065Z,13.10
2018-09-18T12:00:25.004Z,11.07
2018-09-18T12:02:52.226Z,10.98
2018-09-18T12:05:19.336Z,11.65
2018-09-18T12:07:46.379Z,11.40
2018-09-18T12:10:14.005Z,10.38
2018-09-18T12:12:41.092Z,11.10
2018-09-18T12:15:08.242Z,11.48
2018-09-18T12:17:35.462Z,11.07
2018-09-18T12:20:02.547Z,10.13
2018-09-18T12:22:29.807Z,11.32
2018-09-18T12:24:58.282Z,10.70
2018-09-18T12:27:25.435Z,11.02
2018-09-18T12:29:52.487Z,10.93
2018-09-18T12:32:22.804Z,10.60
2018-09-18T12:34:49.859Z,10.85
2018-09-18T12:37:19.162Z,9.85
2018-09-18T12:39:46.203Z,9.80
2018-09-18T12:42:13.410Z,10.35
2018-09-18T12:44:40.576Z,21.67
2018-09-18T12:47:08.070Z,13.43
2018-09-18T12:49:35.613Z,10.57
2018-09-18T12:52:05.032Z,9.82
2018-09-18T12:54:33.211Z,9.35
2018-09-18T12:57:00.406Z,9.82
2018-09-18T12:59:27.805Z,9.10
2018-09-18T13:01:57.489Z,9.80
2018-09-18T13:04:24.852Z,9.77
2018-09-18T13:06:52.089Z,10.40
2018-09-18T13:09:19.285Z,10.98
2018-09-18T13:11:46.744Z,10.80
2018-09-18T13:14:14.198Z,10.93
2018-09-18T13:16:41.255Z,9.18
2018-09-18T13:19:08.406Z,9.40
2018-09-18T13:21:35.759Z,8.80
2018-09-18T13:24:02.878Z,9.63
2018-09-18T13:26:30.166Z,9.02
2018-09-18T13:28:57.317Z,8.25
2018-09-18T13:31:24.775Z,12.73
2018-09-18T13:33:51.925Z,8.73
2018-09-18T13:36:18.990Z,8.38
2018-09-18T13:38:46.017Z,8.05
2018-09-18T13:41:13.109Z,8.20
2018-09-18T13:43:40.224Z,8.27
2018-09-18T13:46:10.076Z,9.73
2018-09-18T13:48:38.307Z,8.15
2018-09-18T13:51:08.073Z,7.57
2018-09-18T13:53:35.277Z,10.27
2018-09-18T13:56:02.450Z,11.40
2018-09-18T13:58:29.675Z,8.65
2018-09-18T14:00:57.821Z,9.80
2018-09-18T14:03:25.108Z,7.65
2018-09-18T14:05:53.758Z,9.90
2018-09-18T14:08:22.078Z,8.00
2018-09-18T14:10:50.038Z,8.88
2018-09-18T14:13:17.292Z,8.32
2018-09-18T14:15:46.073Z,7.78
2018-09-18T14:18:13.335Z,9.68
2018-09-18T14:20:40.587Z,11.65
2018-09-18T14:23:07.939Z,9.63
2018-09-18T14:25:35.100Z,12.13
2018-09-18T14:28:02.149Z,8.90
2018-09-18T14:30:29.500Z,7.97
2018-09-18T14:32:56.757Z,7.57
2018-09-18T14:35:23.908Z,9.10
2018-09-18T14:37:51.018Z,10.75
2018-09-18T14:40:19.038Z,7.93
2018-09-18T14:42:46.072Z,9.35
2018-09-18T14:45:13.759Z,10.65
2018-09-18T14:47:41.076Z,8.65
2018-09-18T14:50:08.138Z,7.80
2018-09-18T14:52:36.826Z,8.23
2018-09-18T14:55:03.976Z,10.38
2018-09-18T14:57:31.029Z,7.60
2018-09-18T14:59:58.122Z,10.23
2018-09-18T15:02:25.638Z,8.57
2018-09-18T15:04:52.838Z,8.85
2018-09-18T15:07:19.993Z,8.98
2018-09-18T15:09:47.598Z,8.48
2018-09-18T15:12:14.751Z,7.62
2018-09-18T15:14:41.854Z,7.68
2018-09-18T15:17:09.531Z,7.90
2018-09-18T15:19:44.687Z,7.90
2018-09-18T15:22:16.566Z,12.60
2018-09-18T15:24:48.493Z,7.75
2018-09-18T15:27:15.580Z,8.90
2018-09-18T15:35:21.063Z,9.25
2018-09-18T15:37:48.621Z,8.18
2018-09-18T16:36:55.776Z,15.52
2018-09-18T16:39:24.510Z,9.38
2018-09-18T16:41:52.878Z,15.00
2018-09-18T16:44:25.352Z,12.02
2018-09-18T16:46:54.260Z,9.93
2018-09-18T16:49:23.923Z,9.85
2018-09-18T16:51:55.748Z,13.32
2018-09-18T16:54:25.656Z,10.93
2018-09-18T16:56:52.985Z,14.52
2018-09-18T16:59:20.040Z,10.98
2018-09-18T17:01:49.837Z,12.10
2018-09-18T17:04:19.228Z,11.55
2018-09-18T17:06:49.893Z,13.32
2018-09-18T17:09:17.551Z,16.95
2018-09-18T17:11:46.420Z,11.82
2018-09-18T17:14:15.300Z,20.08
2018-09-18T17:16:44.723Z,12.65
2018-09-18T17:19:11.792Z,17.15
2018-09-18T17:21:40.956Z,12.55
2018-09-18T17:24:11.698Z,13.85
2018-09-18T17:26:39.485Z,13.38
2018-09-18T17:29:08.289Z,13.70
2018-09-18T17:31:38.365Z,13.45
2018-09-18T17:34:10.547Z,14.25
2018-09-18T17:36:42.973Z,14.07
2018-09-18T17:39:12.717Z,13.95
2018-09-18T17:41:41.390Z,15.10
2018-09-18T17:44:11.294Z,15.65
2018-09-18T17:46:41.076Z,16.87
2018-09-18T17:49:09.758Z,18.83
2018-09-18T17:51:39.350Z,21.35
2018-09-18T17:54:08.765Z,20.83
2018-09-18T17:56:39.665Z,16.87
2018-09-18T17:59:08.052Z,19.37
2018-09-18T18:01:37.483Z,18.83
2018-09-18T18:04:05.967Z,18.37
2018-09-18T18:06:36.606Z,21.33
2018-09-18T18:09:04.369Z,18.45
2018-09-18T18:14:05.018Z,19.70
2018-09-18T18:16:36.446Z,18.95
2018-09-18T18:19:05.125Z,19.25
2018-09-18T18:21:33.631Z,18.80
2018-09-18T18:24:03.035Z,19.50
2018-09-18T18:26:31.697Z,19.08
2018-09-18T18:29:00.285Z,19.85
2018-09-18T18:31:28.365Z,22.30
2018-09-18T18:33:56.835Z,19.40
2018-09-18T18:36:24.433Z,20.65
2018-09-18T18:38:52.031Z,20.73
2018-09-18T18:41:25.519Z,21.98
2018-09-18T18:43:58.111Z,21.25
2018-09-18T18:46:33.235Z,20.45
2018-09-18T18:49:00.975Z,19.80
2018-09-18T18:51:30.546Z,20.25
2018-09-18T18:53:58.142Z,19.55
2018-09-18T18:56:25.809Z,20.05
2018-09-18T18:58:55.212Z,21.95
2018-09-18T19:01:24.539Z,19.90
2018-09-18T19:03:53.083Z,18.20
2018-09-18T19:06:21.795Z,19.62
2018-09-18T19:08:52.513Z,21.85
2018-09-18T19:11:20.801Z,22.27
2018-09-18T19:13:51.425Z,22.95
2018-09-18T19:16:19.056Z,24.25
2018-09-18T19:18:54.366Z,22.35
2018-09-18T19:21:21.969Z,28.05
2018-09-18T19:23:52.326Z,26.58
2018-09-18T19:26:39.587Z,23.83
2018-09-18T19:29:08.601Z,23.65
2018-09-18T19:31:36.304Z,22.55
2018-09-18T19:34:06.134Z,21.75
2018-09-18T19:36:37.486Z,21.23
2018-09-18T19:39:07.307Z,21.23
2018-09-18T19:41:37.582Z,21.05
2018-09-18T19:44:09.073Z,20.98
2018-09-18T19:46:43.214Z,22.67
2018-09-18T19:49:16.806Z,20.90
2018-09-18T19:51:51.419Z,20.25
2018-09-18T19:54:24.388Z,23.25
2018-09-18T19:56:53.789Z,22.27
2018-09-18T19:59:22.289Z,25.08
2018-09-18T20:01:49.934Z,23.55
2018-09-18T20:04:20.246Z,27.62
2018-09-18T20:06:50.555Z,32.53
2018-09-18T20:09:19.098Z,31.33
2018-09-18T20:11:46.633Z,27.87
2018-09-18T20:14:16.114Z,28.90
2018-09-18T20:17:04.366Z,25.67
2018-09-18T20:19:34.020Z,27.58
2018-09-18T20:22:01.760Z,28.98
2018-09-18T20:24:30.215Z,25.05
2018-09-18T20:26:57.693Z,28.60
2018-09-18T20:29:26.522Z,27.05
2018-09-18T20:31:54.257Z,28.77
2018-09-18T20:34:23.281Z,29.48
2018-09-18T20:36:52.909Z,32.38
2018-09-18T20:39:22.337Z,28.95
2018-09-18T20:41:51.881Z,29.12
2018-09-18T20:44:20.213Z,29.33
2018-09-18T20:46:48.420Z,32.47
2018-09-18T20:49:18.003Z,32.03
2018-09-18T20:51:46.276Z,31.35
2018-09-18T20:54:13.866Z,30.75
2018-09-18T20:56:40.917Z,30.90
2018-09-18T20:59:09.466Z,31.80
2018-09-18T21:01:36.826Z,30.88
2018-09-18T21:04:05.441Z,31.60
2018-09-18T21:06:32.800Z,33.13
2018-09-18T21:08:59.848Z,33.33
2018-09-18T21:11:26.899Z,32.45
2018-09-18T21:13:54.044Z,33.90
2018-09-18T21:16:21.096Z,33.30
2018-09-18T21:18:48.249Z,31.52
2018-09-18T21:21:15.498Z,31.87
2018-09-18T21:23:42.552Z,32.67
2018-09-18T21:26:09.702Z,33.58
2018-09-18T21:28:36.855Z,33.78
2018-09-18T21:31:03.897Z,36.90
2018-09-18T21:33:31.155Z,34.75
2018-09-18T21:35:58.613Z,35.13
2018-09-18T21:38:25.656Z,37.72
2018-09-18T21:40:52.708Z,32.72
2018-09-18T21:43:20.065Z,31.50
2018-09-18T21:45:47.109Z,35.38
2018-09-18T21:48:14.185Z,32.67
2018-09-18T21:50:41.616Z,31.92
2018-09-18T21:53:08.670Z,31.05
2018-09-18T21:55:35.714Z,30.90
2018-09-18T21:58:03.071Z,29.90
2018-09-18T22:00:30.220Z,31.62
2018-09-18T22:02:57.280Z,35.25
2018-09-18T22:05:24.318Z,31.45
2018-09-18T22:07:51.366Z,35.03
2018-09-18T22:10:18.419Z,36.53
2018-09-18T22:12:45.575Z,36.15
2018-09-18T22:15:12.615Z,34.10
2018-09-18T22:17:39.663Z,36.85
2018-09-18T22:20:06.815Z,40.95
2018-09-18T22:22:33.873Z,40.28
2018-09-18T22:25:01.034Z,43.97
2018-09-18T22:27:28.169Z,47.10
2018-09-18T22:29:55.213Z,42.85
2018-09-18T22:32:22.261Z,45.15
2018-09-18T22:34:49.315Z,41.90
2018-09-18T22:37:16.466Z,45.12
2018-09-18T22:39:43.509Z,37.28
2018-09-18T22:42:10.588Z,37.50
2018-09-18T22:44:37.615Z,41.33
2018-09-18T22:47:04.655Z,40.12
2018-09-18T22:49:33.470Z,39.20
2018-09-18T22:52:00.496Z,38.35
2018-09-18T22:54:27.541Z,42.67
2018-09-18T22:56:54.554Z,39.55
2018-09-18T22:59:21.643Z,42.28
2018-09-18T23:01:48.693Z,36.33
2018-09-18T23:04:15.744Z,34.88
2018-09-18T23:06:42.792Z,39.72
2018-09-18T23:09:10.355Z,36.83
2018-09-18T23:11:37.370Z,39.47
2018-09-18T23:14:04.444Z,38.15
2018-09-18T23:16:31.500Z,40.63
2018-09-18T23:18:58.697Z,48.35
2018-09-18T23:21:25.700Z,40.47
2018-09-18T23:23:52.742Z,41.72
2018-09-18T23:26:19.797Z,37.03
2018-09-18T23:28:46.837Z,37.72
2018-09-18T23:31:13.886Z,35.97
2018-09-18T23:33:40.939Z,33.45
2018-09-18T23:36:07.982Z,37.70
2018-09-18T23:38:35.243Z,38.10
2018-09-18T23:41:02.289Z,39.97
2018-09-18T23:43:29.337Z,39.30
2018-09-18T23:45:56.485Z,39.15
2018-09-18T23:48:23.562Z,36.10
2018-09-18T23:50:50.556Z,38.55
2018-09-18T23:53:18.766Z,41.47
2018-09-18T23:55:45.810Z,43.22
2018-09-18T23:58:12.855Z,41.08
